Time;durP1;ratioP1;P1;durP2;ratioP2;P2;SDS_P1;SDS_P2;PMS_P1;PMS_P2;Temp;Humidity;BMP_temperature;BMP_pressure;BME280_temperature;BME280_humidity;BME280_pressure;Samples;Min_cycle;Max_cycle;Signal;HPM_P1;HPM_P2
2021/04/02 00:00:16;;;;;;;2.80;1.10;;;23.20;35.90;;;;;;5099794;28;20931;-66
2021/04/02 00:02:44;;;;;;;3.22;1.38;;;23.20;35.90;;;;;;5102471;28;20887;-65
2021/04/02 00:05:20;;;;;;;2.95;1.40;;;23.20;35.90;;;;;;5102198;28;20468;-64
2021/04/02 00:07:47;;;;;;;4.22;1.40;;;23.20;35.80;;;;;;5100228;28;20410;-66
2021/04/02 00:10:20;;;;;;;3.10;1.30;;;23.10;35.90;;;;;;5112674;28;20384;-66
2021/04/02 00:12:46;;;;;;;2.38;1.00;;;23.10;35.90;;;;;;5112795;28;20388;-65
2021/04/02 00:15:18;;;;;;;2.80;1.30;;;23.10;35.90;;;;;;5112746;28;20385;-66
2021/04/02 00:17:44;;;;;;;2.50;1.20;;;23.10;35.90;;;;;;5112720;28;20399;-65
2021/04/02 00:20:16;;;;;;;2.92;1.25;;;23.10;35.90;;;;;;5112292;28;20461;-66
2021/04/02 00:22:43;;;;;;;4.03;1.50;;;23.10;35.90;;;;;;5112561;28;20389;-65
2021/04/02 00:25:10;;;;;;;3.08;1.30;;;23.00;35.90;;;;;;5112606;28;20395;-66
2021/04/02 00:27:35;;;;;;;2.83;1.50;;;23.00;35.90;;;;;;5112397;28;20413;-66
2021/04/02 00:30:08;;;;;;;2.60;1.20;;;23.00;35.90;;;;;;5112678;28;20383;-66
2021/04/02 00:32:33;;;;;;;2.92;1.23;;;23.00;36.00;;;;;;5112036;28;20863;-66
2021/04/02 00:34:59;;;;;;;2.00;1.00;;;23.00;35.90;;;;;;5112246;28;20403;-65
2021/04/02 00:37:25;;;;;;;2.40;1.10;;;23.00;36.00;;;;;;5112260;28;20380;-66
2021/04/02 00:39:50;;;;;;;2.53;1.10;;;23.00;36.00;;;;;;5112324;28;20855;-65
2021/04/02 00:42:16;;;;;;;2.87;1.07;;;23.00;36.00;;;;;;5111821;28;20778;-62
2021/04/02 00:44:41;;;;;;;2.67;1.20;;;22.90;35.90;;;;;;5112052;28;20466;-66
2021/04/02 00:47:07;;;;;;;2.30;1.30;;;22.90;35.90;;;;;;5112162;28;20408;-66
2021/04/02 00:49:33;;;;;;;2.55;1.33;;;22.90;35.90;;;;;;5112149;28;20733;-65
2021/04/02 00:51:58;;;;;;;2.90;1.20;;;22.90;36.00;;;;;;5111437;28;20818;-66
2021/04/02 00:54:24;;;;;;;2.20;1.20;;;22.90;35.90;;;;;;5111611;28;20863;-66
2021/04/02 00:56:50;;;;;;;2.50;1.10;;;22.90;36.00;;;;;;5112106;28;20887;-66
2021/04/02 00:59:16;;;;;;;1.95;1.17;;;22.90;35.90;;;;;;5112161;28;20463;-66
2021/04/02 01:01:41;;;;;;;2.05;1.08;;;22.90;36.00;;;;;;5111959;28;20419;-66
2021/04/02 01:04:07;;;;;;;2.87;1.23;;;22.90;36.00;;;;;;5111650;28;20412;-66
2021/04/02 01:06:33;;;;;;;2.38;1.10;;;22.80;35.90;;;;;;5111423;28;20498;-66
2021/04/02 01:08:58;;;;;;;2.33;1.20;;;22.80;35.90;;;;;;5111929;28;20551;-64
2021/04/02 01:11:26;;;;;;;1.80;0.90;;;22.80;36.00;;;;;;5111861;28;20479;-65
2021/04/02 01:13:54;;;;;;;2.38;1.20;;;22.80;36.00;;;;;;5111896;28;20467;-66
2021/04/02 01:16:23;;;;;;;1.83;1.10;;;22.80;36.00;;;;;;5111284;28;20396;-66
2021/04/02 01:18:57;;;;;;;2.17;1.20;;;22.80;36.70;;;;;;5111922;28;20403;-66
2021/04/02 01:21:31;;;;;;;2.10;1.10;;;22.80;36.10;;;;;;5111830;28;20372;-66
2021/04/02 01:24:00;;;;;;;2.38;1.13;;;22.70;36.00;;;;;;5111932;28;20368;-65
2021/04/02 01:26:50;;;;;;;1.85;1.00;;;22.80;36.10;;;;;;5111110;28;20438;-66
2021/04/02 01:29:41;;;;;;;2.15;1.20;;;22.70;36.00;;;;;;5111774;28;20372;-66
2021/04/02 01:32:10;;;;;;;2.15;1.15;;;22.70;36.00;;;;;;5111718;28;20494;-66
2021/04/02 01:34:39;;;;;;;1.83;1.10;;;22.70;36.00;;;;;;5111238;28;20410;-66
2021/04/02 01:37:09;;;;;;;1.80;1.08;;;22.70;36.00;;;;;;5111675;28;20392;-66
2021/04/02 01:39:39;;;;;;;1.92;1.00;;;22.70;36.00;;;;;;5110351;28;20391;-66
2021/04/02 01:42:07;;;;;;;2.70;1.17;;;22.70;36.10;;;;;;5111731;28;20380;-66
2021/04/02 01:44:37;;;;;;;2.05;1.00;;;22.70;36.00;;;;;;5110936;28;20510;-67
2021/04/02 01:47:04;;;;;;;2.28;1.40;;;22.60;36.00;;;;;;5111477;28;20415;-65
2021/04/02 01:49:31;;;;;;;2.08;1.08;;;22.60;36.00;;;;;;5111454;28;20380;-65
2021/04/02 01:51:57;;;;;;;2.33;1.20;;;22.60;36.00;;;;;;5111570;28;20396;-65
2021/04/02 01:54:23;;;;;;;2.25;1.08;;;22.60;36.00;;;;;;5110944;28;20447;-66
2021/04/02 01:56:52;;;;;;;1.60;0.90;;;22.60;36.00;;;;;;5111504;28;20539;-66
2021/04/02 01:59:20;;;;;;;2.30;1.15;;;22.60;36.00;;;;;;5111429;28;20495;-65
2021/04/02 02:01:47;;;;;;;2.63;1.20;;;22.60;36.00;;;;;;5111543;28;20481;-65
2021/04/02 02:04:15;;;;;;;1.95;1.10;;;22.60;36.00;;;;;;5111407;28;20380;-66
2021/04/02 02:06:41;;;;;;;1.98;1.10;;;22.60;36.10;;;;;;5110963;28;20473;-65
2021/04/02 02:09:11;;;;;;;2.33;1.10;;;22.50;36.10;;;;;;5111381;28;20412;-66
2021/04/02 02:11:40;;;;;;;2.35;1.20;;;22.60;36.10;;;;;;5111347;28;20758;-67
2021/04/02 02:14:14;;;;;;;2.70;1.00;;;22.60;36.10;;;;;;5111315;28;20424;-66
2021/04/02 02:16:42;;;;;;;2.50;1.00;;;22.50;36.10;;;;;;5113971;28;20867;-66
2021/04/02 02:19:14;;;;;;;1.92;1.23;;;22.50;36.10;;;;;;5115058;28;20510;-66
2021/04/02 02:21:43;;;;;;;2.15;1.20;;;22.50;36.10;;;;;;5114955;28;20376;-66
2021/04/02 02:24:09;;;;;;;1.52;0.90;;;22.50;36.20;;;;;;5115000;28;20421;-65
2021/04/02 02:26:37;;;;;;;2.30;1.45;;;22.50;36.20;;;;;;5114337;28;20420;-66
2021/04/02 02:29:03;;;;;;;2.70;1.50;;;22.50;36.20;;;;;;5114910;28;20373;-65
2021/04/02 02:31:29;;;;;;;2.60;1.30;;;22.50;36.20;;;;;;5114782;28;20395;-66
2021/04/02 02:33:54;;;;;;;2.10;1.30;;;22.50;36.20;;;;;;5114773;28;20408;-66
2021/04/02 02:36:21;;;;;;;2.08;1.30;;;22.40;36.20;;;;;;5114406;28;20417;-66
2021/04/02 02:38:47;;;;;;;2.80;1.17;;;22.40;36.20;;;;;;5114631;28;20376;-65
2021/04/02 02:41:12;;;;;;;2.35;1.30;;;22.40;36.20;;;;;;5114700;28;20437;-65
2021/04/02 02:43:39;;;;;;;2.03;1.13;;;22.40;36.30;;;;;;5114736;28;20388;-65
2021/04/02 02:46:04;;;;;;;2.40;1.10;;;22.40;36.30;;;;;;5114347;28;20404;-65
2021/04/02 02:48:30;;;;;;;2.87;1.30;;;22.40;36.40;;;;;;5113961;28;20859;-66
2021/04/02 02:50:57;;;;;;;2.30;1.15;;;22.40;36.40;;;;;;5114407;28;20380;-66
2021/04/02 02:53:26;;;;;;;2.25;1.10;;;22.40;36.30;;;;;;5114289;28;20392;-65
2021/04/02 02:55:53;;;;;;;2.20;1.20;;;22.40;36.40;;;;;;5114278;28;20419;-66
2021/04/02 02:58:23;;;;;;;2.10;1.20;;;22.30;36.30;;;;;;5113961;28;20437;-65
2021/04/02 03:00:52;;;;;;;2.22;1.25;;;22.30;36.20;;;;;;5114332;28;20426;-66
2021/04/02 03:03:20;;;;;;;2.45;1.10;;;22.30;36.30;;;;;;5114152;28;20384;-65
2021/04/02 03:05:50;;;;;;;2.08;1.30;;;22.30;36.40;;;;;;5114021;28;20771;-66
2021/04/02 03:08:19;;;;;;;2.00;1.17;;;22.30;36.30;;;;;;5114112;27;20396;-64
2021/04/02 03:10:45;;;;;;;2.30;1.10;;;22.30;36.40;;;;;;5112433;28;20789;-66
2021/04/02 03:13:16;;;;;;;2.90;1.23;;;22.30;36.50;;;;;;5114041;28;20441;-66
2021/04/02 03:15:43;;;;;;;2.03;1.27;;;22.30;36.40;;;;;;5113986;28;20373;-66
2021/04/02 03:18:14;;;;;;;2.28;1.30;;;22.30;36.40;;;;;;5113866;28;20450;-66
2021/04/02 03:20:40;;;;;;;2.15;1.13;;;22.20;36.40;;;;;;5113341;28;20422;-65
2021/04/02 03:23:08;;;;;;;1.60;1.10;;;22.20;36.40;;;;;;5113846;28;20459;-66
2021/04/02 03:25:35;;;;;;;2.50;1.20;;;22.20;36.50;;;;;;5113598;28;20431;-66
2021/04/02 03:28:02;;;;;;;1.55;1.20;;;22.20;36.40;;;;;;5113539;28;20395;-65
2021/04/02 03:30:29;;;;;;;1.92;1.20;;;22.20;36.40;;;;;;5113096;28;20388;-65
2021/04/02 03:33:03;;;;;;;2.17;1.08;;;22.20;36.50;;;;;;5113607;28;20388;-66
2021/04/02 03:35:30;;;;;;;2.00;1.20;;;22.20;36.50;;;;;;5113549;28;20376;-65
2021/04/02 03:37:56;;;;;;;1.92;1.08;;;22.20;36.50;;;;;;5113549;28;20390;-66
2021/04/02 03:40:25;;;;;;;2.13;1.33;;;22.20;36.40;;;;;;5113181;28;20928;-65
2021/04/02 03:42:53;;;;;;;1.83;1.10;;;22.20;36.50;;;;;;5113376;28;20385;-66
2021/04/02 03:45:22;;;;;;;1.90;1.20;;;22.20;36.50;;;;;;5113129;27;20457;-66
2021/04/02 03:47:49;;;;;;;1.98;1.23;;;22.20;36.50;;;;;;5113358;28;20891;-66
2021/04/02 03:50:17;;;;;;;2.97;1.30;;;22.10;36.40;;;;;;5113233;28;20848;-66
2021/04/02 03:53:01;;;;;;;1.83;1.10;;;22.10;36.50;;;;;;5112697;28;20387;-66
2021/04/02 03:55:29;;;;;;;2.58;1.23;;;22.10;36.50;;;;;;5113056;28;20376;-66
2021/04/02 03:57:55;;;;;;;2.00;1.20;;;22.10;36.50;;;;;;5113170;28;20412;-66
2021/04/02 04:00:26;;;;;;;1.98;1.40;;;22.10;36.50;;;;;;5112739;28;20387;-65
2021/04/02 04:02:53;;;;;;;2.03;1.27;;;22.10;36.50;;;;;;5113024;28;20391;-66
2021/04/02 04:05:20;;;;;;;1.85;1.13;;;22.10;36.50;;;;;;5112877;28;20380;-65
2021/04/02 04:07:47;;;;;;;2.53;1.10;;;22.10;36.50;;;;;;5112897;28;20756;-66
2021/04/02 04:10:16;;;;;;;2.70;1.25;;;22.10;36.60;;;;;;5112874;28;20384;-66
2021/04/02 04:12:44;;;;;;;2.40;1.20;;;22.10;36.50;;;;;;5112410;28;20409;-64
2021/04/02 04:15:13;;;;;;;1.92;1.30;;;22.00;36.50;;;;;;5112848;28;20865;-66
2021/04/02 04:17:41;;;;;;;2.30;1.30;;;22.00;36.50;;;;;;5112837;28;20467;-65
2021/04/02 04:20:09;;;;;;;2.88;1.30;;;22.00;36.50;;;;;;5111463;28;20391;-64
2021/04/02 04:22:37;;;;;;;2.50;1.15;;;22.00;36.60;;;;;;5112203;28;20388;-65
2021/04/02 04:25:06;;;;;;;2.10;1.25;;;22.00;36.50;;;;;;5112599;28;20459;-66
2021/04/02 04:27:32;;;;;;;1.85;1.30;;;22.00;36.60;;;;;;5112464;28;20408;-66
2021/04/02 04:29:59;;;;;;;2.13;1.20;;;22.00;36.60;;;;;;5112569;28;20425;-65
2021/04/02 04:32:27;;;;;;;2.40;1.20;;;22.00;36.60;;;;;;5112299;28;20459;-65
2021/04/02 04:34:52;;;;;;;2.00;1.25;;;22.00;37.20;;;;;;5112421;28;20384;-65
2021/04/02 04:37:21;;;;;;;2.00;1.30;;;22.00;36.60;;;;;;5112363;28;20388;-66
2021/04/02 04:39:48;;;;;;;2.20;1.10;;;22.00;36.60;;;;;;5111891;28;20392;-67
2021/04/02 04:42:16;;;;;;;1.85;1.20;;;21.90;36.60;;;;;;5112321;28;20373;-65
2021/04/02 04:44:44;;;;;;;1.95;1.20;;;22.00;36.60;;;;;;5111635;28;20919;-65
2021/04/02 04:47:10;;;;;;;2.40;1.30;;;21.90;36.50;;;;;;5112255;28;20840;-65
2021/04/02 04:49:36;;;;;;;2.43;1.40;;;21.90;36.60;;;;;;5110780;28;20950;-65
2021/04/02 04:52:04;;;;;;;2.55;1.40;;;21.90;36.60;;;;;;5112175;28;20420;-66
2021/04/02 04:54:32;;;;;;;2.00;1.33;;;21.90;36.70;;;;;;5111623;28;20860;-65
2021/04/02 04:56:59;;;;;;;2.13;1.50;;;21.90;36.70;;;;;;5112389;28;20416;-66
2021/04/02 04:59:27;;;;;;;2.50;1.30;;;21.90;36.60;;;;;;5112101;28;20846;-66
2021/04/02 05:01:54;;;;;;;2.38;1.48;;;21.90;36.60;;;;;;5112198;28;20380;-66
2021/04/02 05:04:21;;;;;;;2.40;1.40;;;21.90;36.70;;;;;;5112037;28;20440;-65
2021/04/02 05:06:52;;;;;;;2.22;1.52;;;21.90;36.70;;;;;;5110183;28;20810;-66
2021/04/02 05:09:19;;;;;;;2.83;1.57;;;21.90;36.70;;;;;;5112025;28;20403;-65
2021/04/02 05:11:46;;;;;;;2.38;1.50;;;21.80;36.60;;;;;;5111999;28;20728;-64
2021/04/02 05:14:12;;;;;;;2.70;1.40;;;21.80;36.60;;;;;;5111972;28;20380;-65
2021/04/02 05:16:40;;;;;;;2.47;1.40;;;21.80;36.70;;;;;;5111622;28;20400;-66
2021/04/02 05:19:06;;;;;;;2.55;1.40;;;21.80;36.60;;;;;;5111853;28;20849;-65
2021/04/02 05:21:32;;;;;;;2.65;1.60;;;21.80;36.70;;;;;;5111828;28;20399;-66
2021/04/02 05:23:57;;;;;;;1.90;1.27;;;21.80;36.70;;;;;;5111788;28;20736;-64
2021/04/02 05:26:23;;;;;;;2.40;1.30;;;21.90;36.70;;;;;;5111607;28;20805;-66
2021/04/02 05:28:49;;;;;;;2.28;1.30;;;21.90;36.50;;;;;;5110336;28;20373;-66
2021/04/02 05:31:15;;;;;;;2.10;1.40;;;22.10;36.40;;;;;;5111784;28;20400;-65
2021/04/02 05:33:41;;;;;;;2.53;1.30;;;22.10;36.20;;;;;;5111772;28;20445;-66
2021/04/02 05:36:07;;;;;;;2.40;1.40;;;22.20;36.10;;;;;;5111712;28;20786;-66
2021/04/02 05:38:33;;;;;;;2.03;1.20;;;22.20;35.90;;;;;;5111176;28;20388;-66
2021/04/02 05:41:07;;;;;;;2.00;1.20;;;22.30;35.80;;;;;;5111671;28;20384;-66
2021/04/02 05:43:38;;;;;;;2.45;1.23;;;22.30;35.80;;;;;;5111595;28;20387;-66
2021/04/02 05:46:04;;;;;;;2.30;1.30;;;22.30;35.60;;;;;;5111484;28;20902;-67
2021/04/02 05:48:33;;;;;;;2.37;1.50;;;22.30;35.50;;;;;;5110114;28;20889;-65
2021/04/02 05:50:59;;;;;;;4.13;1.50;;;22.30;35.60;;;;;;5113484;28;20449;-63
2021/04/02 05:53:29;;;;;;;4.20;1.30;;;22.30;35.60;;;;;;5114617;28;20876;-67
2021/04/02 05:55:56;;;;;;;2.90;1.40;;;22.40;36.30;;;;;;5114917;28;20912;-64
2021/04/02 05:58:22;;;;;;;4.72;1.50;;;22.50;36.00;;;;;;5114655;28;20380;-67
2021/04/02 06:00:48;;;;;;;3.92;1.70;;;22.50;35.70;;;;;;5114304;28;20388;-65
2021/04/02 06:03:17;;;;;;;3.37;1.40;;;22.50;36.40;;;;;;5115246;28;20380;-67
2021/04/02 06:05:43;;;;;;;6.32;1.70;;;22.50;35.70;;;;;;5115329;28;20395;-66
2021/04/02 06:08:10;;;;;;;5.22;1.48;;;22.50;36.00;;;;;;5115312;28;20393;-67
2021/04/02 06:10:36;;;;;;;4.22;1.80;;;22.50;36.30;;;;;;5114769;28;20388;-67
2021/04/02 06:13:01;;;;;;;4.10;1.77;;;22.50;36.20;;;;;;5115216;28;20368;-67
2021/04/02 06:15:31;;;;;;;3.93;1.60;;;22.50;36.70;;;;;;5114908;28;20441;-66
2021/04/02 06:17:59;;;;;;;5.13;1.73;;;22.60;36.00;;;;;;5115191;28;20418;-64
2021/04/02 06:20:55;;;;;;;4.07;1.60;;;22.60;36.10;;;;;;5114957;28;20769;-65
2021/04/02 06:23:28;;;;;;;5.05;1.77;;;22.60;36.00;;;;;;5112065;28;20384;-66
2021/04/02 06:26:01;;;;;;;4.35;1.90;;;22.60;36.00;;;;;;5105108;28;20467;-66
2021/04/02 06:28:34;;;;;;;4.88;2.00;;;22.60;36.20;;;;;;5094451;28;20394;-60
2021/04/02 06:31:14;;;;;;;4.25;1.90;;;22.60;36.40;;;;;;5094801;28;20733;-59
2021/04/02 06:33:54;;;;;;;3.45;1.67;;;22.60;36.10;;;;;;5102427;28;20422;-66
2021/04/02 06:36:23;;;;;;;4.57;1.60;;;22.60;36.20;;;;;;5102438;28;20466;-61
2021/04/02 06:38:57;;;;;;;3.13;1.60;;;22.60;36.10;;;;;;5100040;28;20890;-66
2021/04/02 06:41:25;;;;;;;2.87;1.63;;;22.60;36.00;;;;;;5104074;28;20395;-63
2021/04/02 06:43:55;;;;;;;3.35;1.60;;;22.60;35.60;;;;;;5102397;28;20390;-65
2021/04/02 06:46:25;;;;;;;3.63;1.67;;;22.70;35.40;;;;;;5102293;28;20436;-64
2021/04/02 06:48:52;;;;;;;2.75;1.40;;;22.70;35.60;;;;;;5101907;28;20429;-66
2021/04/02 06:51:19;;;;;;;3.00;1.70;;;22.70;35.40;;;;;;5103058;27;20859;-66
2021/04/02 06:53:47;;;;;;;2.97;1.50;;;22.70;35.40;;;;;;5102888;28;20487;-59
2021/04/02 06:56:15;;;;;;;4.72;2.20;;;22.70;35.40;;;;;;5105776;28;20898;-66
2021/04/02 06:58:43;;;;;;;4.63;1.90;;;22.80;35.60;;;;;;5114032;28;20384;-66
2021/04/02 07:01:12;;;;;;;5.72;1.75;;;22.70;35.80;;;;;;5112137;28;20391;-66
2021/04/02 07:03:38;;;;;;;3.78;2.03;;;22.70;36.10;;;;;;5113584;28;20384;-66
2021/04/02 07:06:05;;;;;;;5.83;2.10;;;22.80;37.00;;;;;;5114094;28;20996;-66
2021/04/02 07:08:33;;;;;;;6.00;2.10;;;22.70;37.30;;;;;;5113734;28;20388;-65
2021/04/02 07:10:59;;;;;;;8.45;2.00;;;22.70;37.50;;;;;;5113754;28;20380;-66
2021/04/02 07:13:26;;;;;;;5.25;2.10;;;22.70;37.80;;;;;;5113997;28;20500;-66
2021/04/02 07:15:52;;;;;;;9.52;2.10;;;22.80;37.80;;;;;;5113987;28;20415;-66
2021/04/02 07:18:19;;;;;;;4.72;2.00;;;22.80;37.40;;;;;;5113733;28;20439;-66
2021/04/02 07:20:48;;;;;;;8.15;2.10;;;22.80;37.50;;;;;;5113265;28;20380;-66
2021/04/02 07:23:14;;;;;;;6.45;2.25;;;22.80;37.60;;;;;;5113775;28;20890;-66
2021/04/02 07:25:40;;;;;;;4.50;2.00;;;22.80;37.60;;;;;;5113784;28;20859;-66
2021/04/02 07:28:07;;;;;;;5.82;2.13;;;22.80;36.90;;;;;;5113887;28;20393;-66
2021/04/02 07:30:33;;;;;;;6.00;2.00;;;22.80;37.30;;;;;;5113296;28;20377;-66
2021/04/02 07:33:02;;;;;;;5.70;2.40;;;22.90;37.40;;;;;;5113341;28;20429;-66
2021/04/02 07:35:28;;;;;;;7.03;2.20;;;22.80;37.30;;;;;;5113284;28;20873;-65
2021/04/02 07:37:57;;;;;;;6.80;2.17;;;22.80;37.40;;;;;;5113785;28;20380;-66
2021/04/02 07:40:29;;;;;;;6.80;2.25;;;22.80;37.40;;;;;;5113334;28;20429;-66
2021/04/02 07:42:56;;;;;;;3.92;2.20;;;22.90;37.20;;;;;;5112979;28;20376;-66
2021/04/02 07:45:26;;;;;;;4.50;2.40;;;22.90;37.40;;;;;;5113219;27;20465;-64
2021/04/02 07:47:54;;;;;;;4.63;2.35;;;22.90;37.30;;;;;;5113188;28;20902;-66
2021/04/02 07:50:47;;;;;;;6.27;2.43;;;23.00;36.30;;;;;;5113126;28;20388;-67
2021/04/02 07:53:38;;;;;;;12.68;7.07;;;23.10;36.00;;;;;;5113215;28;20397;-66
2021/04/02 07:56:14;;;;;;;6.85;5.15;;;23.10;35.40;;;;;;5113073;28;20385;-66
2021/04/02 07:58:53;;;;;;;14.00;9.85;;;23.10;35.80;;;;;;5112518;28;20380;-66
2021/04/02 08:01:22;;;;;;;15.55;9.80;;;23.10;35.10;;;;;;5112830;28;20373;-67
2021/04/02 08:03:50;;;;;;;25.35;17.15;;;23.10;35.40;;;;;;5113053;28;20436;-66
2021/04/02 08:06:32;;;;;;;27.77;19.10;;;23.10;35.60;;;;;;5112857;28;20542;-66
2021/04/02 08:09:01;;;;;;;27.80;19.08;;;23.10;34.90;;;;;;5111973;28;20427;-66
2021/04/02 08:11:33;;;;;;;27.90;19.05;;;23.10;34.90;;;;;;5112985;28;20463;-65
2021/04/02 08:14:13;;;;;;;27.02;17.40;;;23.10;34.90;;;;;;5111911;28;20844;-66
2021/04/02 08:16:53;;;;;;;21.95;15.48;;;23.10;34.60;;;;;;5112161;28;20414;-64
2021/04/02 08:19:26;;;;;;;17.73;12.97;;;23.10;34.30;;;;;;5111336;28;20428;-66
2021/04/02 08:22:01;;;;;;;17.33;11.02;;;23.10;34.20;;;;;;5112658;28;20376;-65
2021/04/02 08:24:30;;;;;;;14.52;10.85;;;23.10;34.10;;;;;;5112504;28;20372;-66
2021/04/02 08:26:56;;;;;;;14.90;9.88;;;23.10;34.10;;;;;;5112032;28;20411;-67
2021/04/02 08:29:25;;;;;;;15.00;10.00;;;23.10;34.00;;;;;;5112609;28;20415;-63
2021/04/02 08:32:00;;;;;;;13.43;8.52;;;23.20;34.00;;;;;;5112434;28;20410;-65
2021/04/02 08:34:28;;;;;;;10.10;7.97;;;23.20;33.90;;;;;;5112369;28;20856;-64
2021/04/02 08:36:57;;;;;;;10.10;7.40;;;23.20;33.90;;;;;;5111912;28;20388;-65
2021/04/02 08:39:24;;;;;;;10.18;7.60;;;23.20;33.80;;;;;;5112231;28;20951;-66
2021/04/02 08:41:56;;;;;;;11.02;7.00;;;23.30;33.80;;;;;;5112281;28;20398;-65
2021/04/02 08:44:36;;;;;;;9.53;6.70;;;23.30;33.80;;;;;;5111988;28;20792;-64
2021/04/02 08:47:10;;;;;;;8.70;6.00;;;23.30;33.70;;;;;;5112014;28;20580;-66
2021/04/02 08:49:39;;;;;;;7.63;5.80;;;23.30;33.70;;;;;;5112175;28;20388;-66
2021/04/02 08:52:09;;;;;;;8.75;6.00;;;23.30;33.60;;;;;;5112157;28;20786;-65
2021/04/02 08:54:35;;;;;;;8.48;5.45;;;23.30;33.60;;;;;;5111791;28;20868;-64
2021/04/02 08:57:00;;;;;;;9.10;6.47;;;23.30;33.70;;;;;;5111868;28;20396;-65
2021/04/02 08:59:30;;;;;;;11.43;7.90;;;23.30;33.70;;;;;;5111357;28;20420;-62
2021/04/02 09:01:56;;;;;;;9.27;7.35;;;23.20;33.70;;;;;;5107425;28;20463;-65
2021/04/02 09:04:22;;;;;;;10.20;6.80;;;23.20;33.80;;;;;;5098825;28;21198;-66
2021/04/02 09:06:49;;;;;;;8.50;6.30;;;23.20;33.80;;;;;;5098244;28;20556;-63
2021/04/02 09:09:20;;;;;;;8.83;6.23;;;23.20;33.80;;;;;;5100025;28;20462;-61
2021/04/02 09:11:54;;;;;;;7.22;5.85;;;23.20;33.70;;;;;;5099379;28;20386;-66
2021/04/02 09:14:22;;;;;;;7.63;5.95;;;23.30;33.90;;;;;;5098517;28;20401;-64
2021/04/02 09:16:49;;;;;;;8.88;5.50;;;23.20;33.70;;;;;;5098183;28;20396;-65
2021/04/02 09:19:17;;;;;;;8.30;5.72;;;23.20;33.90;;;;;;5100347;28;20383;-61
2021/04/02 09:21:43;;;;;;;6.82;4.80;;;23.20;33.90;;;;;;5098714;28;20816;-65
2021/04/02 09:24:09;;;;;;;6.00;4.65;;;23.20;33.80;;;;;;5099202;28;20437;-66
2021/04/02 09:26:42;;;;;;;6.90;4.90;;;23.20;33.90;;;;;;5104063;28;20412;-65
2021/04/02 09:29:10;;;;;;;6.40;4.72;;;23.20;33.90;;;;;;5103743;28;20390;-65
2021/04/02 09:31:37;;;;;;;5.10;4.15;;;23.20;34.50;;;;;;5102207;28;20404;-66
2021/04/02 09:34:05;;;;;;;5.63;4.07;;;23.20;33.90;;;;;;5103250;28;20947;-66
2021/04/02 09:36:33;;;;;;;5.85;4.40;;;23.20;33.90;;;;;;5103749;28;20397;-61
2021/04/02 09:39:22;;;;;;;5.03;4.10;;;23.20;33.90;;;;;;5104338;28;20382;-64
2021/04/02 09:42:02;;;;;;;6.72;5.68;;;23.20;34.00;;;;;;5101378;28;20386;-65
2021/04/02 09:44:30;;;;;;;9.65;6.47;;;23.20;33.70;;;;;;5103214;28;20418;-62
2021/04/02 09:47:12;;;;;;;9.02;6.45;;;23.20;33.30;;;;;;5101287;28;20809;-63
2021/04/02 09:49:39;;;;;;;12.18;7.20;;;23.10;33.10;;;;;;5101543;28;20397;-62
2021/04/02 09:52:07;;;;;;;7.95;5.05;;;23.10;33.30;;;;;;5019305;28;20744;-62
2021/04/02 09:54:34;;;;;;;9.73;4.88;;;23.10;34.80;;;;;;5044273;28;20411;-65
2021/04/02 09:57:05;;;;;;;11.20;5.07;;;23.20;34.00;;;;;;5039945;28;20397;-63
2021/04/02 09:59:31;;;;;;;8.73;4.70;;;23.20;34.60;;;;;;5039003;28;20419;-66
2021/04/02 10:01:57;;;;;;;6.13;4.00;;;23.20;34.40;;;;;;5041600;28;20388;-65
2021/04/02 10:04:23;;;;;;;10.23;5.30;;;23.20;34.40;;;;;;5038921;28;20406;-65
2021/04/02 10:06:49;;;;;;;6.75;4.47;;;23.30;34.80;;;;;;5040573;28;20821;-62
2021/04/02 10:09:15;;;;;;;7.35;4.35;;;23.20;35.20;;;;;;5042133;28;20425;-60
2021/04/02 10:11:45;;;;;;;8.32;4.10;;;23.30;35.10;;;;;;5048382;28;20915;-64
2021/04/02 10:14:10;;;;;;;15.32;4.15;;;23.30;34.90;;;;;;5054934;28;20396;-65
2021/04/02 10:16:36;;;;;;;9.18;3.78;;;23.40;34.90;;;;;;5046679;28;20403;-65
2021/04/02 10:19:05;;;;;;;10.67;4.30;;;23.40;35.40;;;;;;5034810;28;20542;-65
2021/04/02 10:21:31;;;;;;;13.73;4.10;;;23.50;36.00;;;;;;5046785;28;20538;-66
2021/04/02 10:23:58;;;;;;;15.35;4.68;;;23.50;35.40;;;;;;5042385;28;20401;-65
2021/04/02 10:26:23;;;;;;;16.00;3.90;;;23.50;35.90;;;;;;5054018;28;20420;-64
2021/04/02 10:28:49;;;;;;;11.07;3.70;;;23.60;35.30;;;;;;5037408;28;20379;-61
2021/04/02 10:31:16;;;;;;;14.82;4.28;;;23.60;35.50;;;;;;5034217;28;20891;-64
2021/04/02 10:33:42;;;;;;;13.48;5.15;;;23.70;35.40;;;;;;5037797;28;20394;-64
2021/04/02 10:36:08;;;;;;;13.05;6.22;;;23.70;35.30;;;;;;5044253;28;20807;-61
2021/04/02 10:38:34;;;;;;;12.20;7.32;;;23.80;35.50;;;;;;5039196;28;20393;-66
2021/04/02 10:41:00;;;;;;;13.50;8.27;;;23.90;35.40;;;;;;5053469;28;20389;-64
2021/04/02 10:43:26;;;;;;;14.07;8.25;;;24.00;35.20;;;;;;5053306;28;20423;-64
2021/04/02 10:45:52;;;;;;;16.65;9.13;;;24.10;35.20;;;;;;5053642;28;20437;-65
2021/04/02 10:48:17;;;;;;;21.70;10.35;;;24.20;35.50;;;;;;5053192;28;20439;-66
2021/04/02 10:50:45;;;;;;;20.93;11.13;;;24.20;35.30;;;;;;5041145;28;20395;-62
2021/04/02 10:53:12;;;;;;;20.30;11.38;;;24.30;35.20;;;;;;5034439;28;20414;-65
2021/04/02 10:55:38;;;;;;;20.23;12.00;;;24.30;35.20;;;;;;5053077;28;20392;-66
2021/04/02 10:58:05;;;;;;;20.50;12.30;;;24.40;35.20;;;;;;5038306;28;20403;-64
2021/04/02 11:00:31;;;;;;;34.25;21.13;;;24.40;35.20;;;;;;5033672;28;20849;-65
2021/04/02 11:02:57;;;;;;;40.30;24.30;;;24.40;35.70;;;;;;5046485;28;20523;-58
2021/04/02 11:05:22;;;;;;;42.80;26.45;;;24.50;35.40;;;;;;5042703;28;20895;-63
2021/04/02 11:07:48;;;;;;;41.53;28.17;;;24.50;35.20;;;;;;5043845;28;20430;-58
2021/04/02 11:10:14;;;;;;;50.47;31.45;;;24.60;35.40;;;;;;5041925;28;20403;-65
2021/04/02 11:12:40;;;;;;;51.00;32.13;;;24.60;35.60;;;;;;5044059;28;20460;-65
2021/04/02 11:15:08;;;;;;;52.10;31.35;;;24.70;35.80;;;;;;5046402;28;20962;-66
2021/04/02 11:17:34;;;;;;;51.03;31.30;;;24.70;35.80;;;;;;5049298;28;20766;-66
2021/04/02 11:20:00;;;;;;;49.03;29.63;;;24.80;36.00;;;;;;5052228;28;20382;-67
2021/04/02 11:22:26;;;;;;;44.90;29.13;;;24.80;35.50;;;;;;5050132;28;20394;-64
2021/04/02 11:24:52;;;;;;;48.90;28.63;;;24.90;35.20;;;;;;5045872;28;20936;-67
2021/04/02 11:27:19;;;;;;;43.97;26.95;;;25.00;35.10;;;;;;5051014;28;20511;-65
2021/04/02 11:29:45;;;;;;;51.55;27.55;;;25.00;35.10;;;;;;5052100;28;20817;-66
2021/04/02 11:32:11;;;;;;;50.78;28.13;;;25.10;35.60;;;;;;5052671;28;20448;-66
2021/04/02 11:34:38;;;;;;;65.57;29.08;;;25.10;36.60;;;;;;5052873;28;20393;-65
2021/04/02 11:37:07;;;;;;;48.60;29.30;;;25.30;37.20;;;;;;5052408;28;20417;-65
2021/04/02 11:39:33;;;;;;;50.28;28.42;;;25.40;36.20;;;;;;5035870;28;20449;-66
2021/04/02 11:41:59;;;;;;;47.28;26.80;;;25.40;35.90;;;;;;5035474;28;20417;-65
2021/04/02 11:44:25;;;;;;;40.97;24.70;;;25.50;35.50;;;;;;5048147;28;20808;-67
2021/04/02 11:46:51;;;;;;;39.50;24.70;;;25.50;35.20;;;;;;5039674;28;20566;-61
2021/04/02 11:49:16;;;;;;;36.83;22.05;;;25.50;35.30;;;;;;5037275;28;20393;-65
2021/04/02 11:51:43;;;;;;;37.53;22.27;;;25.50;35.00;;;;;;5042426;28;20467;-59
2021/04/02 11:54:09;;;;;;;42.28;21.70;;;25.40;35.60;;;;;;5037560;28;20395;-68
2021/04/02 11:56:35;;;;;;;31.33;20.15;;;25.50;35.60;;;;;;5041897;28;20735;-68
2021/04/02 11:59:01;;;;;;;30.03;18.67;;;25.50;35.60;;;;;;5037327;28;20411;-67
2021/04/02 12:01:26;;;;;;;30.13;18.60;;;25.50;35.60;;;;;;5031472;28;20403;-66
2021/04/02 12:03:52;;;;;;;29.77;17.50;;;25.50;35.30;;;;;;5033737;28;20384;-66
2021/04/02 12:06:18;;;;;;;30.80;17.23;;;25.50;35.10;;;;;;5036189;28;20402;-66
2021/04/02 12:08:43;;;;;;;28.20;15.87;;;25.50;35.10;;;;;;5035772;28;20460;-66
2021/04/02 12:11:09;;;;;;;27.30;15.32;;;25.50;35.10;;;;;;5041463;28;20887;-64
2021/04/02 12:13:35;;;;;;;28.80;14.63;;;25.40;35.20;;;;;;5031875;28;20609;-64
2021/04/02 12:16:00;;;;;;;31.92;14.45;;;25.40;36.40;;;;;;5050893;28;20397;-59
2021/04/02 12:18:26;;;;;;;33.83;14.40;;;25.40;36.40;;;;;;5039169;28;20395;-66
2021/04/02 12:20:52;;;;;;;33.58;13.27;;;25.40;35.90;;;;;;5031710;28;20461;-61
2021/04/02 12:23:18;;;;;;;22.70;11.60;;;25.40;35.70;;;;;;5034409;28;20434;-61
2021/04/02 12:25:43;;;;;;;22.10;11.40;;;25.50;34.90;;;;;;5040235;28;20478;-62
2021/04/02 12:28:09;;;;;;;26.37;11.57;;;25.50;34.60;;;;;;5051813;28;20544;-66
2021/04/02 12:30:35;;;;;;;21.27;10.32;;;25.50;34.70;;;;;;5046437;28;20444;-63
2021/04/02 12:33:01;;;;;;;25.10;10.33;;;25.40;34.40;;;;;;5042939;28;20447;-65
2021/04/02 12:35:26;;;;;;;25.02;10.30;;;25.40;34.40;;;;;;5049936;28;20486;-63
2021/04/02 12:37:53;;;;;;;25.00;10.02;;;25.40;34.90;;;;;;5048517;28;20393;-65
2021/04/02 12:40:22;;;;;;;23.58;9.88;;;25.40;34.60;;;;;;5043313;28;20481;-63
2021/04/02 12:42:50;;;;;;;23.52;9.77;;;25.40;34.60;;;;;;5038402;28;20402;-58
2021/04/02 12:45:16;;;;;;;22.20;8.88;;;25.40;34.60;;;;;;5040216;28;20459;-63
2021/04/02 12:47:43;;;;;;;15.10;8.35;;;25.40;34.60;;;;;;5037743;28;20423;-61